LTCIOJAI

Guest
Details From LTCI - Van
To OJAI - Queen Alia Intl
Flight Number -
Tags Generated
Created
Modified
Stats Distance 542 nm / 1,004 km
Max Altitude 0 ft / 0 m
Waypoints 3
Social Downloads 1
Likes 0
Share VATSIM

Download

Looking for another format? Having issues loading an existing format? Contact us
Advertisement - Login to hide

Notes

Generated

Route

LTCI QA613 OJAI

ID Type Via Altitude Latitude Longitude Leg Dist Tot Dist Heading (true) Name
O LTCI APT - 0 ft / 0 m 38.45843˚ 43.32267˚ - 0 nm - -
QA613 FIX - 0 ft / 0 m 31.83317˚ 36.07595˚ 533 nm 533 nm 224° / 220° -
O OJAI APT - 0 ft / 0 m 31.71439˚ 35.98059˚ 8 nm 542 nm 214° / 214° -

Altitude Profile

Advertisement - Login to hide

Weather


0- 5 10 15 20 25 30 35+ Temperature / ° C

Clouds and Precipitation
Forecast for 2017-12-12 18:00 UTC. Updated an hour ago

Ground ~20,000 ft ~40,000 ft Winds

LTCI

Details ICAO LTCI (VAN)
Name VAN
Region Turkey
Timezone Europe/Istanbul (UTC+3.0)
Stats Elevation 5,480 ft / 1,670 m (AMSL)
Location 38.468221° 43.332300°
Runways 1
Magnetic Variation 5.767° E

METAR

LTCI 121350Z 12003KT 4000 BR NSC 01/M03 Q1028 BECMG 6000

Decode

TAF

Not found

Departure Runways

ID Width Length Bearing (true) Bearing (mag) Surface Threshold Offset Overrun Length
03 148 ft / 45 m 9,018 ft / 2,749 m 37.57° 31.80° Asphalt 0 ft / 0 m 196 ft / 60 m
21 148 ft / 45 m 9,018 ft / 2,749 m 217.59° 211.82° Asphalt 0 ft / 0 m 196 ft / 60 m

OJAI

Details ICAO OJAI (AMM)
Name QUEEN ALIA INTL
Region Jordan and the West Bank
Timezone Asia/Amman (UTC+2.0)
Stats Elevation 2,395 ft / 730 m (AMSL)
Location 31.723310° 35.994046°
Runways 2
Magnetic Variation 4.660° E

METAR

OJAI 121400Z 08010KT 7000 NSC 19/M06 Q1022 NOSIG

Decode

TAF

TAF OJAI 121100Z 1212/1318 12010KT 7000 NSC TEMPO 1302/1306 VRB02KT 5000 HZ BECMG 1310/1312 28016KT 6000 FEW030

Decode

Destination Runways

ID Width Length Bearing (true) Bearing (mag) Surface Threshold Offset Overrun Length
08L 200 ft / 61 m 11,948 ft / 3,642 m 80.34° 75.68° Asphalt 0 ft / 0 m 490 ft / 149 m
08R 200 ft / 61 m 11,943 ft / 3,640 m 80.35° 75.69° Concrete 0 ft / 0 m 530 ft / 162 m
26L 200 ft / 61 m 11,943 ft / 3,640 m 260.37° 255.71° Concrete 0 ft / 0 m 500 ft / 152 m
26R 200 ft / 61 m 11,948 ft / 3,642 m 260.36° 255.70° Asphalt 0 ft / 0 m 492 ft / 150 m

Approach Navaids

Runway Type Ident Frequency Range Bearing (true) Bearing (mag) Slope Elevation
08L Localiser IQAN 109.30 MHz 18 nm / 33 km 80.37° 75.71° - 2,399 ft / 731 m (AMSL)
08L Glidescope IQAN 109.30 MHz 10 nm / 19 km 80.35° 75.69° 3.00° 2,537 ft / 773 m (AMSL)
26L Localiser IQA 110.90 MHz 18 nm / 33 km 260.35° 255.69° - 2,356 ft / 718 m (AMSL)
26L Glidescope IQA 110.90 MHz 10 nm / 19 km 260.36° 255.70° 3.00° 2,395 ft / 730 m (AMSL)
26R Localiser IQAR 111.10 MHz 18 nm / 33 km 260.31° 255.65° - 2,393 ft / 729 m (AMSL)
26R Glidescope IQAR 111.10 MHz 10 nm / 19 km 260.35° 255.69° 3.00° 2,393 ft / 729 m (AMSL)